Watsonville, CA (95077)

1:40 PM PDT on September 02, 2014 (GMT -0700)
Landmark Elementary School | Change Station
CLOSE
Current Station
Personal Weather Station
Location: Watsonville, CA
Elevation: 46 ft
Nearby Weather Stations

Elev 46 ft 36.91 °N, 121.78 °W | Updated 15 seconds ago

Overcast
Overcast
65.3 °F
Feels Like 65.3 °F
N
5.0
Wind Variable Wind from SW
Gusts 10.0 mph

Today
High -- | Low -- °F
--% Chance of Precip.
Yesterday
High -- | Low -- °F
Precip. -- in
6:38 AM 7:33 PM
First Quarter, 54% visible
Pressure 29.89 in
Visibility 10.0 miles
Clouds Overcast 700 ft
Dew Point 58 °F
Humidity 78%
Rainfall 0.00 in
Snow Depth Not available.
UV 3 out of 12
Pollen 7.30 out of 12
Air Quality Not available.
Flu Activity Not available.
METAR KWVI 021953Z AUTO 19006KT 10SM OVC007 19/14 A2989 RMK AO2 SLP122 T01890144

More Conditions Fewer Conditions

Pressure 29.89 in
Visibility 10.0 miles
Clouds Overcast 700 ft
Dew Point 58 °F
Humidity 78%
Rainfall 0.00 in
Snow Depth Not available.
UV 3 out of 12
Pollen 7.30 out of 12
Air Quality Not available.
Flu Activity Not available.
METAR KWVI 021953Z AUTO 19006KT 10SM OVC007 19/14 A2989 RMK AO2 SLP122 T01890144

More Conditions Fewer Conditions

10-Day Weather Forecast

Almanac

Astronomy

Sep. 02, 2014 Rise Set
Actual Time 6:38 AM PDT 7:33 PM PDT
Civil Twilight 6:12 AM PDT 8:00 PM PDT
Nautical Twilight 5:40 AM PDT 8:31 PM PDT
Astronomical Twilight 5:08 AM PDT 9:03 PM PDT
Moon 2:17 PM PDT No Moon Set
Length of Visible Light 13h 47m
Length of Day
12h 55m
Tomorrow will be 2m 16s shorter.
First Quarter, 54% of the Moon is Illuminated
Today
First Quarter
Sep 8
Full
Sep 15
Last Quarter
Sep 24
New
Oct 1
First Quarter

Today's Extremes

State Highs State Lows

Community

WunderPhotos

Upload Photos

1,749,763 photos uploaded!

WunderBlogs® & News

By Dr. Jeff Masters
Director of Meteorology, Weather Underground
By Kari Strenfel
Meteorologist, Weather Underground
By Christopher C. Burt
Weather Historian, Weather Underground
September 2, 2014
September 2, 2014
September 2, 2014

Nearby

Snow Depth

Station Depth Elevation
Leavitt Meadows 0 in 7200 ft
Echo Peak 0 in 7800 ft
Fallen Leaf 0 in 6300 ft
CSS Lab 0 in 6900 ft
Adin Mountain 1 in 6200 ft

Earthquake Activity

City Distance Mag. Time & Date
Cobb, California 142 miles 2.5 12:00 PM PDT
2014-09-02
Yountville, California 105 miles 2.6 1:15 PM PDT
2014-09-01
Gilroy, California 16 miles 3.5 9:10 AM PDT
2014-09-01
Green Valley, California 95 miles 2.5 6:37 AM PDT
2014-08-31
Minimum magnitude displayed is 2.5.

Coastal Water Temperatures

Place Temperature
Monterey, CA 66.0 °F
Redwood City, CA 73.9 °F

Nearby Weather Stations